sensor_id;sensor_type;location;lat;lon;timestamp;pressure;altitude;pressure_sealevel;temperature
43802;BMP280;29429;51.074;13.764;2022-10-16T00:01:38;99740.06;;;15.46
43802;BMP280;29429;51.074;13.764;2022-10-16T00:04:05;99744.22;;;15.42
43802;BMP280;29429;51.074;13.764;2022-10-16T00:06:32;99734.19;;;15.37
43802;BMP280;29429;51.074;13.764;2022-10-16T00:08:59;99740.03;;;15.34
43802;BMP280;29429;51.074;13.764;2022-10-16T00:11:33;99757.00;;;15.35
43802;BMP280;29429;51.074;13.764;2022-10-16T00:14:03;99748.00;;;15.29
43802;BMP280;29429;51.074;13.764;2022-10-16T00:16:30;99756.06;;;15.29
43802;BMP280;29429;51.074;13.764;2022-10-16T00:18:58;99760.25;;;15.25
43802;BMP280;29429;51.074;13.764;2022-10-16T00:21:28;99765.88;;;15.23
43802;BMP280;29429;51.074;13.764;2022-10-16T00:23:59;99768.81;;;15.22
43802;BMP280;29429;51.074;13.764;2022-10-16T00:26:29;99771.72;;;15.20
43802;BMP280;29429;51.074;13.764;2022-10-16T00:28:56;99773.81;;;15.18
43802;BMP280;29429;51.074;13.764;2022-10-16T00:31:24;99772.78;;;15.19
43802;BMP280;29429;51.074;13.764;2022-10-16T00:33:52;99771.34;;;15.17
43802;BMP280;29429;51.074;13.764;2022-10-16T00:36:23;99768.91;;;15.15
43802;BMP280;29429;51.074;13.764;2022-10-16T00:38:53;99761.09;;;15.14
43802;BMP280;29429;51.074;13.764;2022-10-16T00:41:24;99771.59;;;15.15
43802;BMP280;29429;51.074;13.764;2022-10-16T00:44:01;99774.53;;;15.14
43802;BMP280;29429;51.074;13.764;2022-10-16T00:46:41;99780.94;;;15.13
43802;BMP280;29429;51.074;13.764;2022-10-16T00:49:18;99769.84;;;15.09
43802;BMP280;29429;51.074;13.764;2022-10-16T00:51:50;99782.59;;;15.14
43802;BMP280;29429;51.074;13.764;2022-10-16T00:54:27;99777.22;;;15.14
43802;BMP280;29429;51.074;13.764;2022-10-16T00:56:59;99787.81;;;15.20
43802;BMP280;29429;51.074;13.764;2022-10-16T00:59:39;99781.75;;;15.25
43802;BMP280;29429;51.074;13.764;2022-10-16T01:02:12;99787.84;;;15.32
43802;BMP280;29429;51.074;13.764;2022-10-16T01:04:50;99782.94;;;15.41
43802;BMP280;29429;51.074;13.764;2022-10-16T01:10:13;99785.75;;;15.46
43802;BMP280;29429;51.074;13.764;2022-10-16T01:12:52;99784.56;;;15.53
43802;BMP280;29429;51.074;13.764;2022-10-16T01:15:31;99784.13;;;15.56
43802;BMP280;29429;51.074;13.764;2022-10-16T01:18:23;99787.72;;;15.62
43802;BMP280;29429;51.074;13.764;2022-10-16T01:29:15;99779.16;;;15.76
43802;BMP280;29429;51.074;13.764;2022-10-16T01:31:50;99793.78;;;15.80
43802;BMP280;29429;51.074;13.764;2022-10-16T01:34:35;99785.47;;;15.82
43802;BMP280;29429;51.074;13.764;2022-10-16T01:37:16;99803.09;;;15.90
43802;BMP280;29429;51.074;13.764;2022-10-16T01:39:47;99800.97;;;15.92
43802;BMP280;29429;51.074;13.764;2022-10-16T01:42:22;99799.47;;;15.96
43802;BMP280;29429;51.074;13.764;2022-10-16T01:44:52;99800.03;;;15.98
43802;BMP280;29429;51.074;13.764;2022-10-16T01:47:25;99801.22;;;16.02
43802;BMP280;29429;51.074;13.764;2022-10-16T01:49:57;99796.97;;;16.06
43802;BMP280;29429;51.074;13.764;2022-10-16T01:52:28;99798.38;;;16.08
43802;BMP280;29429;51.074;13.764;2022-10-16T01:54:57;99792.72;;;16.10
43802;BMP280;29429;51.074;13.764;2022-10-16T01:57:29;99791.78;;;16.16
43802;BMP280;29429;51.074;13.764;2022-10-16T02:00:05;99789.66;;;16.18
43802;BMP280;29429;51.074;13.764;2022-10-16T02:02:41;99794.34;;;16.22
43802;BMP280;29429;51.074;13.764;2022-10-16T02:05:28;99803.00;;;16.24
43802;BMP280;29429;51.074;13.764;2022-10-16T02:07:57;99798.66;;;16.23
43802;BMP280;29429;51.074;13.764;2022-10-16T02:10:29;99798.44;;;16.25
43802;BMP280;29429;51.074;13.764;2022-10-16T02:13:28;99800.88;;;16.26
43802;BMP280;29429;51.074;13.764;2022-10-16T02:15:57;99796.56;;;16.25
43802;BMP280;29429;51.074;13.764;2022-10-16T02:18:25;99799.56;;;16.29
43802;BMP280;29429;51.074;13.764;2022-10-16T02:21:02;99812.56;;;16.32
43802;BMP280;29429;51.074;13.764;2022-10-16T02:24:03;99805.78;;;16.29
43802;BMP280;29429;51.074;13.764;2022-10-16T02:26:49;99814.41;;;16.31
43802;BMP280;29429;51.074;13.764;2022-10-16T02:29:25;99808.81;;;16.33
43802;BMP280;29429;51.074;13.764;2022-10-16T02:32:01;99806.69;;;16.35
43802;BMP280;29429;51.074;13.764;2022-10-16T02:34:32;99804.56;;;16.37
43802;BMP280;29429;51.074;13.764;2022-10-16T02:37:01;99796.50;;;16.37
43802;BMP280;29429;51.074;13.764;2022-10-16T02:39:30;99800.56;;;16.39
43802;BMP280;29429;51.074;13.764;2022-10-16T02:41:57;99795.44;;;16.38
43802;BMP280;29429;51.074;13.764;2022-10-16T02:44:24;99806.31;;;16.43
43802;BMP280;29429;51.074;13.764;2022-10-16T02:46:51;99805.72;;;16.41
43802;BMP280;29429;51.074;13.764;2022-10-16T02:49:18;99801.31;;;16.35
43802;BMP280;29429;51.074;13.764;2022-10-16T02:51:45;99799.28;;;16.42
43802;BMP280;29429;51.074;13.764;2022-10-16T02:54:12;99801.75;;;16.43
43802;BMP280;29429;51.074;13.764;2022-10-16T02:56:39;99798.22;;;16.43
43802;BMP280;29429;51.074;13.764;2022-10-16T02:59:06;99790.63;;;16.40
43802;BMP280;29429;51.074;13.764;2022-10-16T03:01:33;99792.84;;;16.43
43802;BMP280;29429;51.074;13.764;2022-10-16T03:04:00;99791.78;;;16.44
43802;BMP280;29429;51.074;13.764;2022-10-16T03:06:27;99782.63;;;16.45
43802;BMP280;29429;51.074;13.764;2022-10-16T03:08:53;99795.13;;;16.51
43802;BMP280;29429;51.074;13.764;2022-10-16T03:11:20;99789.75;;;16.51
43802;BMP280;29429;51.074;13.764;2022-10-16T03:13:47;99785.91;;;16.47
43802;BMP280;29429;51.074;13.764;2022-10-16T03:16:14;99804.53;;;16.49
43802;BMP280;29429;51.074;13.764;2022-10-16T03:18:41;99795.28;;;16.44
43802;BMP280;29429;51.074;13.764;2022-10-16T03:21:08;99795.53;;;16.43
43802;BMP280;29429;51.074;13.764;2022-10-16T03:23:35;99813.22;;;16.39
43802;BMP280;29429;51.074;13.764;2022-10-16T03:26:02;99808.34;;;16.36
43802;BMP280;29429;51.074;13.764;2022-10-16T03:28:29;99802.59;;;16.32
43802;BMP280;29429;51.074;13.764;2022-10-16T03:30:56;99811.97;;;16.30
43802;BMP280;29429;51.074;13.764;2022-10-16T03:33:22;99817.25;;;16.25
43802;BMP280;29429;51.074;13.764;2022-10-16T03:35:54;99807.81;;;16.22
43802;BMP280;29429;51.074;13.764;2022-10-16T03:38:22;99817.66;;;16.17
43802;BMP280;29429;51.074;13.764;2022-10-16T03:40:48;99826.75;;;16.16
43802;BMP280;29429;51.074;13.764;2022-10-16T03:43:15;99819.63;;;16.10
43802;BMP280;29429;51.074;13.764;2022-10-16T03:45:42;99820.63;;;16.04
43802;BMP280;29429;51.074;13.764;2022-10-16T03:48:09;99820.25;;;16.00
43802;BMP280;29429;51.074;13.764;2022-10-16T03:50:37;99829.63;;;15.98
43802;BMP280;29429;51.074;13.764;2022-10-16T03:53:04;99822.28;;;15.93
43802;BMP280;29429;51.074;13.764;2022-10-16T03:55:31;99832.47;;;15.91
43802;BMP280;29429;51.074;13.764;2022-10-16T03:57:57;99837.03;;;15.91
43802;BMP280;29429;51.074;13.764;2022-10-16T04:00:24;99830.47;;;15.87
43802;BMP280;29429;51.074;13.764;2022-10-16T04:02:52;99832.09;;;15.88
43802;BMP280;29429;51.074;13.764;2022-10-16T04:05:18;99832.59;;;15.84
43802;BMP280;29429;51.074;13.764;2022-10-16T04:07:45;99835.16;;;15.79
43802;BMP280;29429;51.074;13.764;2022-10-16T04:10:12;99834.91;;;15.81
43802;BMP280;29429;51.074;13.764;2022-10-16T04:12:39;99841.00;;;15.76
43802;BMP280;29429;51.074;13.764;2022-10-16T04:15:07;99845.09;;;15.79
43802;BMP280;29429;51.074;13.764;2022-10-16T04:17:34;99841.25;;;15.75
43802;BMP280;29429;51.074;13.764;2022-10-16T04:20:00;99844.28;;;15.78
43802;BMP280;29429;51.074;13.764;2022-10-16T04:22:27;99852.94;;;15.80
43802;BMP280;29429;51.074;13.764;2022-10-16T04:24:54;99852.94;;;15.80
43802;BMP280;29429;51.074;13.764;2022-10-16T04:27:21;99856.22;;;15.82
43802;BMP280;29429;51.074;13.764;2022-10-16T04:29:48;99860.31;;;15.85
43802;BMP280;29429;51.074;13.764;2022-10-16T04:32:15;99842.50;;;15.84
43802;BMP280;29429;51.074;13.764;2022-10-16T04:34:42;99839.09;;;15.89
43802;BMP280;29429;51.074;13.764;2022-10-16T04:37:09;99844.03;;;15.92
43802;BMP280;29429;51.074;13.764;2022-10-16T04:39:36;99860.50;;;15.95
43802;BMP280;29429;51.074;13.764;2022-10-16T04:42:03;99863.44;;;15.94
43802;BMP280;29429;51.074;13.764;2022-10-16T04:44:30;99859.78;;;16.00
43802;BMP280;29429;51.074;13.764;2022-10-16T04:46:56;99861.34;;;15.96
43802;BMP280;29429;51.074;13.764;2022-10-16T04:49:23;99858.41;;;15.97
43802;BMP280;29429;51.074;13.764;2022-10-16T04:51:50;99865.06;;;15.95
43802;BMP280;29429;51.074;13.764;2022-10-16T04:54:17;99865.06;;;15.95
43802;BMP280;29429;51.074;13.764;2022-10-16T04:56:44;99856.91;;;15.90
43802;BMP280;29429;51.074;13.764;2022-10-16T04:59:14;99854.22;;;15.90
43802;BMP280;29429;51.074;13.764;2022-10-16T05:01:41;99865.53;;;15.92
43802;BMP280;29429;51.074;13.764;2022-10-16T05:04:09;99861.34;;;15.96
43802;BMP280;29429;51.074;13.764;2022-10-16T05:06:37;99852.34;;;15.90
43802;BMP280;29429;51.074;13.764;2022-10-16T05:09:05;99853.47;;;15.94
43802;BMP280;29429;51.074;13.764;2022-10-16T05:11:33;99869.50;;;16.01
43802;BMP280;29429;51.074;13.764;2022-10-16T05:14:00;99866.72;;;15.96
43802;BMP280;29429;51.074;13.764;2022-10-16T05:16:27;99855.69;;;15.97
43802;BMP280;29429;51.074;13.764;2022-10-16T05:18:54;99866.25;;;15.99
43802;BMP280;29429;51.074;13.764;2022-10-16T05:21:36;99872.09;;;15.96
43802;BMP280;29429;51.074;13.764;2022-10-16T05:24:02;99868.00;;;15.93
43802;BMP280;29429;51.074;13.764;2022-10-16T05:26:29;99876.28;;;15.92
43802;BMP280;29429;51.074;13.764;2022-10-16T05:28:56;99882.28;;;15.94
43802;BMP280;29429;51.074;13.764;2022-10-16T05:31:23;99888.34;;;15.89
43802;BMP280;29429;51.074;13.764;2022-10-16T05:33:50;99884.84;;;15.89
43802;BMP280;29429;51.074;13.764;2022-10-16T05:36:17;99884.84;;;15.89
43802;BMP280;29429;51.074;13.764;2022-10-16T05:38:44;99878.41;;;15.90
43802;BMP280;29429;51.074;13.764;2022-10-16T05:41:11;99874.44;;;15.92
43802;BMP280;29429;51.074;13.764;2022-10-16T05:43:38;99875.72;;;15.90
43802;BMP280;29429;51.074;13.764;2022-10-16T05:46:05;99883.22;;;15.88
43802;BMP280;29429;51.074;13.764;2022-10-16T05:48:33;99893.97;;;15.88
43802;BMP280;29429;51.074;13.764;2022-10-16T05:51:06;99901.13;;;15.94
43802;BMP280;29429;51.074;13.764;2022-10-16T05:53:36;99891.28;;;15.88
43802;BMP280;29429;51.074;13.764;2022-10-16T05:56:06;99915.16;;;15.96
43802;BMP280;29429;51.074;13.764;2022-10-16T05:58:35;99926.72;;;15.96
43802;BMP280;29429;51.074;13.764;2022-10-16T06:01:06;99917.13;;;15.89
43802;BMP280;29429;51.074;13.764;2022-10-16T06:03:34;99916.28;;;16.00
43802;BMP280;29429;51.074;13.764;2022-10-16T06:06:16;99913.03;;;15.98
43802;BMP280;29429;51.074;13.764;2022-10-16T06:08:45;99917.94;;;16.01
43802;BMP280;29429;51.074;13.764;2022-10-16T06:11:18;99927.78;;;16.07
43802;BMP280;29429;51.074;13.764;2022-10-16T06:13:49;99923.19;;;16.07
43802;BMP280;29429;51.074;13.764;2022-10-16T06:16:16;99926.94;;;16.06
43802;BMP280;29429;51.074;13.764;2022-10-16T06:18:43;99930.09;;;16.03
43802;BMP280;29429;51.074;13.764;2022-10-16T06:21:17;99934.56;;;15.98
43802;BMP280;29429;51.074;13.764;2022-10-16T06:23:45;99941.69;;;16.04
43802;BMP280;29429;51.074;13.764;2022-10-16T06:26:18;99950.44;;;16.11
43802;BMP280;29429;51.074;13.764;2022-10-16T06:28:46;99955.94;;;16.16
43802;BMP280;29429;51.074;13.764;2022-10-16T06:31:14;99955.22;;;16.20
43802;BMP280;29429;51.074;13.764;2022-10-16T06:33:41;99945.63;;;16.24
43802;BMP280;29429;51.074;13.764;2022-10-16T06:36:12;99957.44;;;16.35
43802;BMP280;29429;51.074;13.764;2022-10-16T06:38:39;99955.44;;;16.42
43802;BMP280;29429;51.074;13.764;2022-10-16T06:41:12;99968.19;;;16.47
43802;BMP280;29429;51.074;13.764;2022-10-16T06:43:40;99956.13;;;16.49
43802;BMP280;29429;51.074;13.764;2022-10-16T06:46:10;99966.06;;;16.60
43802;BMP280;29429;51.074;13.764;2022-10-16T06:48:38;99964.66;;;16.69
43802;BMP280;29429;51.074;13.764;2022-10-16T06:51:23;99969.19;;;16.80
43802;BMP280;29429;51.074;13.764;2022-10-16T06:53:53;99978.03;;;16.92
43802;BMP280;29429;51.074;13.764;2022-10-16T06:56:31;99985.81;;;17.05
43802;BMP280;29429;51.074;13.764;2022-10-16T06:58:59;99980.88;;;17.14
43802;BMP280;29429;51.074;13.764;2022-10-16T07:01:28;99988.31;;;17.24
43802;BMP280;29429;51.074;13.764;2022-10-16T07:03:55;99980.66;;;17.32
43802;BMP280;29429;51.074;13.764;2022-10-16T07:06:24;99990.22;;;17.40
43802;BMP280;29429;51.074;13.764;2022-10-16T07:08:52;99987.31;;;17.41
43802;BMP280;29429;51.074;13.764;2022-10-16T07:11:22;99991.88;;;17.41
43802;BMP280;29429;51.074;13.764;2022-10-16T07:13:51;99994.16;;;17.49
43802;BMP280;29429;51.074;13.764;2022-10-16T07:16:28;99996.38;;;17.52
43802;BMP280;29429;51.074;13.764;2022-10-16T07:18:57;99988.50;;;17.62
43802;BMP280;29429;51.074;13.764;2022-10-16T07:21:29;100002.41;;;17.71
43802;BMP280;29429;51.074;13.764;2022-10-16T07:23:59;100012.78;;;17.79
43802;BMP280;29429;51.074;13.764;2022-10-16T07:26:30;100015.88;;;17.87
43802;BMP280;29429;51.074;13.764;2022-10-16T07:28:57;100017.25;;;17.90
43802;BMP280;29429;51.074;13.764;2022-10-16T07:31:25;100026.03;;;17.97
43802;BMP280;29429;51.074;13.764;2022-10-16T07:33:53;100027.91;;;17.96
43802;BMP280;29429;51.074;13.764;2022-10-16T07:36:21;100029.28;;;17.99
43802;BMP280;29429;51.074;13.764;2022-10-16T07:38:48;100042.03;;;18.03
43802;BMP280;29429;51.074;13.764;2022-10-16T07:41:19;100043.69;;;18.04
43802;BMP280;29429;51.074;13.764;2022-10-16T07:43:49;100046.22;;;18.11
43802;BMP280;29429;51.074;13.764;2022-10-16T07:46:19;100044.81;;;18.08
43802;BMP280;29429;51.074;13.764;2022-10-16T07:48:46;100049.25;;;18.14
43802;BMP280;29429;51.074;13.764;2022-10-16T07:51:22;100054.50;;;18.21
43802;BMP280;29429;51.074;13.764;2022-10-16T07:53:49;100059.72;;;18.11
43802;BMP280;29429;51.074;13.764;2022-10-16T07:56:18;100048.19;;;18.15
43802;BMP280;29429;51.074;13.764;2022-10-16T07:58:46;100046.63;;;18.19
43802;BMP280;29429;51.074;13.764;2022-10-16T08:01:15;100053.81;;;18.31
43802;BMP280;29429;51.074;13.764;2022-10-16T08:03:48;100050.69;;;18.39
43802;BMP280;29429;51.074;13.764;2022-10-16T08:06:19;100049.25;;;18.48
43802;BMP280;29429;51.074;13.764;2022-10-16T08:08:52;100038.56;;;18.58
43802;BMP280;29429;51.074;13.764;2022-10-16T08:11:19;100041.47;;;18.73
43802;BMP280;29429;51.074;13.764;2022-10-16T08:13:46;100018.34;;;18.82
43802;BMP280;29429;51.074;13.764;2022-10-16T08:16:13;100026.53;;;18.87
43802;BMP280;29429;51.074;13.764;2022-10-16T08:18:41;100030.41;;;18.96
43802;BMP280;29429;51.074;13.764;2022-10-16T08:21:18;100044.31;;;19.05
43802;BMP280;29429;51.074;13.764;2022-10-16T08:23:47;100041.84;;;19.03
43802;BMP280;29429;51.074;13.764;2022-10-16T08:26:24;100037.25;;;19.04
43802;BMP280;29429;51.074;13.764;2022-10-16T08:28:51;100031.03;;;19.03
43802;BMP280;29429;51.074;13.764;2022-10-16T08:31:19;100031.84;;;19.04
43802;BMP280;29429;51.074;13.764;2022-10-16T08:33:47;100036.94;;;19.00
43802;BMP280;29429;51.074;13.764;2022-10-16T08:36:15;100042.97;;;19.07
43802;BMP280;29429;51.074;13.764;2022-10-16T08:38:43;100048.75;;;19.16
43802;BMP280;29429;51.074;13.764;2022-10-16T08:50:12;100055.84;;;19.43
43802;BMP280;29429;51.074;13.764;2022-10-16T08:52:43;100053.19;;;19.49
43802;BMP280;29429;51.074;13.764;2022-10-16T08:55:50;100058.03;;;19.47
43802;BMP280;29429;51.074;13.764;2022-10-16T08:58:26;100048.34;;;19.51
43802;BMP280;29429;51.074;13.764;2022-10-16T09:00:56;100045.97;;;19.59
43802;BMP280;29429;51.074;13.764;2022-10-16T09:22:39;100041.38;;;19.86
43802;BMP280;29429;51.074;13.764;2022-10-16T09:25:20;100047.09;;;19.90
43802;BMP280;29429;51.074;13.764;2022-10-16T09:27:52;100056.34;;;19.99
43802;BMP280;29429;51.074;13.764;2022-10-16T09:30:21;100059.19;;;20.14
43802;BMP280;29429;51.074;13.764;2022-10-16T09:32:52;100054.72;;;20.25
43802;BMP280;29429;51.074;13.764;2022-10-16T09:35:27;100057.19;;;20.31
43802;BMP280;29429;51.074;13.764;2022-10-16T09:37:58;100058.31;;;20.35
43802;BMP280;29429;51.074;13.764;2022-10-16T09:40:35;100068.88;;;20.37
43802;BMP280;29429;51.074;13.764;2022-10-16T09:43:25;100068.66;;;20.43
43802;BMP280;29429;51.074;13.764;2022-10-16T09:46:04;100065.47;;;20.51
43802;BMP280;29429;51.074;13.764;2022-10-16T09:48:44;100064.13;;;20.59
43802;BMP280;29429;51.074;13.764;2022-10-16T09:51:31;100067.19;;;20.68
43802;BMP280;29429;51.074;13.764;2022-10-16T09:56:37;100066.38;;;20.72
43802;BMP280;29429;51.074;13.764;2022-10-16T10:01:52;100070.50;;;20.85
43802;BMP280;29429;51.074;13.764;2022-10-16T10:04:22;100071.38;;;20.95
43802;BMP280;29429;51.074;13.764;2022-10-16T10:06:56;100068.47;;;21.07
43802;BMP280;29429;51.074;13.764;2022-10-16T10:09:31;100079.91;;;21.19
43802;BMP280;29429;51.074;13.764;2022-10-16T10:12:04;100077.78;;;21.31
43802;BMP280;29429;51.074;13.764;2022-10-16T10:14:47;100068.31;;;21.39
43802;BMP280;29429;51.074;13.764;2022-10-16T10:17:17;100077.00;;;21.41
43802;BMP280;29429;51.074;13.764;2022-10-16T10:20:01;100082.69;;;21.39
43802;BMP280;29429;51.074;13.764;2022-10-16T10:22:45;100090.25;;;21.32
43802;BMP280;29429;51.074;13.764;2022-10-16T10:30:59;100091.56;;;21.14
43802;BMP280;29429;51.074;13.764;2022-10-16T10:36:30;100097.81;;;21.20
43802;BMP280;29429;51.074;13.764;2022-10-16T10:39:06;100101.13;;;21.32
43802;BMP280;29429;51.074;13.764;2022-10-16T10:50:38;100104.00;;;21.93
43802;BMP280;29429;51.074;13.764;2022-10-16T10:56:21;100106.44;;;22.19
43802;BMP280;29429;51.074;13.764;2022-10-16T11:08:01;100082.78;;;22.50
43802;BMP280;29429;51.074;13.764;2022-10-16T11:13:34;100082.50;;;22.77
43802;BMP280;29429;51.074;13.764;2022-10-16T11:16:20;100087.09;;;22.76
43802;BMP280;29429;51.074;13.764;2022-10-16T11:22:24;100092.31;;;22.53
43802;BMP280;29429;51.074;13.764;2022-10-16T11:25:24;100102.34;;;22.57
43802;BMP280;29429;51.074;13.764;2022-10-16T11:28:20;100095.25;;;22.61
43802;BMP280;29429;51.074;13.764;2022-10-16T11:31:04;100097.44;;;22.69
43802;BMP280;29429;51.074;13.764;2022-10-16T11:33:49;100096.88;;;22.77
43802;BMP280;29429;51.074;13.764;2022-10-16T11:36:42;100092.78;;;22.80
43802;BMP280;29429;51.074;13.764;2022-10-16T11:39:24;100099.91;;;22.66
43802;BMP280;29429;51.074;13.764;2022-10-16T11:42:05;100107.53;;;22.69
43802;BMP280;29429;51.074;13.764;2022-10-16T11:44:57;100108.31;;;22.79
43802;BMP280;29429;51.074;13.764;2022-10-16T11:47:40;100105.31;;;22.81
43802;BMP280;29429;51.074;13.764;2022-10-16T11:56:22;100109.94;;;22.80
43802;BMP280;29429;51.074;13.764;2022-10-16T11:59:20;100109.91;;;22.90
43802;BMP280;29429;51.074;13.764;2022-10-16T12:02:20;100110.47;;;22.87
43802;BMP280;29429;51.074;13.764;2022-10-16T12:08:11;100110.16;;;22.94
43802;BMP280;29429;51.074;13.764;2022-10-16T12:10:42;100114.78;;;22.93
43802;BMP280;29429;51.074;13.764;2022-10-16T12:13:39;100116.41;;;22.99
43802;BMP280;29429;51.074;13.764;2022-10-16T12:18:46;100108.75;;;23.07
43802;BMP280;29429;51.074;13.764;2022-10-16T12:21:16;100110.66;;;23.16
43802;BMP280;29429;51.074;13.764;2022-10-16T12:23:58;100107.34;;;23.24
43802;BMP280;29429;51.074;13.764;2022-10-16T12:26:48;100107.59;;;23.28
43802;BMP280;29429;51.074;13.764;2022-10-16T12:32:04;100111.44;;;23.22
43802;BMP280;29429;51.074;13.764;2022-10-16T12:34:44;100112.00;;;23.19
43802;BMP280;29429;51.074;13.764;2022-10-16T12:37:46;100119.38;;;23.08
43802;BMP280;29429;51.074;13.764;2022-10-16T12:40:34;100116.91;;;23.12
43802;BMP280;29429;51.074;13.764;2022-10-16T12:48:50;100129.69;;;23.16
43802;BMP280;29429;51.074;13.764;2022-10-16T12:51:37;100133.47;;;23.25
43802;BMP280;29429;51.074;13.764;2022-10-16T12:54:18;100134.78;;;23.33
43802;BMP280;29429;51.074;13.764;2022-10-16T12:59:47;100132.06;;;23.43
43802;BMP280;29429;51.074;13.764;2022-10-16T13:06:11;100120.94;;;23.29
43802;BMP280;29429;51.074;13.764;2022-10-16T13:09:27;100146.28;;;23.20
43802;BMP280;29429;51.074;13.764;2022-10-16T13:15:16;100147.66;;;23.12
43802;BMP280;29429;51.074;13.764;2022-10-16T13:21:02;100140.59;;;23.06
43802;BMP280;29429;51.074;13.764;2022-10-16T13:27:04;100144.16;;;23.01
43802;BMP280;29429;51.074;13.764;2022-10-16T13:29:34;100145.50;;;23.04
43802;BMP280;29429;51.074;13.764;2022-10-16T13:32:10;100139.81;;;23.06
43802;BMP280;29429;51.074;13.764;2022-10-16T13:34:47;100136.00;;;22.96
43802;BMP280;29429;51.074;13.764;2022-10-16T13:37:22;100140.63;;;22.96
43802;BMP280;29429;51.074;13.764;2022-10-16T13:39:50;100141.75;;;22.90
43802;BMP280;29429;51.074;13.764;2022-10-16T13:42:26;100148.28;;;22.84
43802;BMP280;29429;51.074;13.764;2022-10-16T13:44:55;100163.03;;;22.63
43802;BMP280;29429;51.074;13.764;2022-10-16T13:47:28;100143.13;;;22.57
43802;BMP280;29429;51.074;13.764;2022-10-16T13:50:17;100159.47;;;22.42
43802;BMP280;29429;51.074;13.764;2022-10-16T13:52:45;100164.88;;;22.17
43802;BMP280;29429;51.074;13.764;2022-10-16T13:55:18;100156.19;;;22.05
43802;BMP280;29429;51.074;13.764;2022-10-16T13:57:45;100162.41;;;22.00
43802;BMP280;29429;51.074;13.764;2022-10-16T14:00:25;100167.31;;;22.08
43802;BMP280;29429;51.074;13.764;2022-10-16T14:03:13;100166.78;;;22.11
43802;BMP280;29429;51.074;13.764;2022-10-16T14:05:49;100171.13;;;22.17
43802;BMP280;29429;51.074;13.764;2022-10-16T14:08:18;100172.50;;;22.25
43802;BMP280;29429;51.074;13.764;2022-10-16T14:10:59;100179.03;;;22.29
43802;BMP280;29429;51.074;13.764;2022-10-16T14:13:40;100175.22;;;22.30
43802;BMP280;29429;51.074;13.764;2022-10-16T14:16:20;100173.59;;;22.34
43802;BMP280;29429;51.074;13.764;2022-10-16T14:19:02;100180.41;;;22.36
43802;BMP280;29429;51.074;13.764;2022-10-16T14:21:33;100187.19;;;22.34
43802;BMP280;29429;51.074;13.764;2022-10-16T14:24:30;100184.19;;;22.30
43802;BMP280;29429;51.074;13.764;2022-10-16T14:26:59;100182.00;;;22.27
43802;BMP280;29429;51.074;13.764;2022-10-16T14:29:29;100177.94;;;22.25
43802;BMP280;29429;51.074;13.764;2022-10-16T14:32:04;100168.72;;;22.21
43802;BMP280;29429;51.074;13.764;2022-10-16T14:34:37;100176.88;;;22.21
43802;BMP280;29429;51.074;13.764;2022-10-16T14:37:36;100177.41;;;22.18
43802;BMP280;29429;51.074;13.764;2022-10-16T14:40:04;100176.03;;;22.15
43802;BMP280;29429;51.074;13.764;2022-10-16T14:42:31;100180.09;;;22.13
43802;BMP280;29429;51.074;13.764;2022-10-16T14:44:58;100184.44;;;22.09
43802;BMP280;29429;51.074;13.764;2022-10-16T14:47:26;100183.34;;;22.05
43802;BMP280;29429;51.074;13.764;2022-10-16T14:49:54;100187.69;;;22.01
43802;BMP280;29429;51.074;13.764;2022-10-16T14:52:22;100187.66;;;21.96
43802;BMP280;29429;51.074;13.764;2022-10-16T14:54:50;100203.13;;;21.90
43802;BMP280;29429;51.074;13.764;2022-10-16T14:57:27;100200.38;;;21.80
43802;BMP280;29429;51.074;13.764;2022-10-16T14:59:54;100184.84;;;21.60
43802;BMP280;29429;51.074;13.764;2022-10-16T15:02:32;100203.84;;;21.60
43802;BMP280;29429;51.074;13.764;2022-10-16T15:05:29;100209.75;;;21.47
43802;BMP280;29429;51.074;13.764;2022-10-16T15:07:58;100217.88;;;21.42
43802;BMP280;29429;51.074;13.764;2022-10-16T15:10:27;100210.81;;;21.36
43802;BMP280;29429;51.074;13.764;2022-10-16T15:12:55;100221.06;;;21.29
43802;BMP280;29429;51.074;13.764;2022-10-16T15:15:41;100226.22;;;21.26
43802;BMP280;29429;51.074;13.764;2022-10-16T15:18:08;100224.75;;;21.13
43802;BMP280;29429;51.074;13.764;2022-10-16T15:20:38;100234.50;;;21.09
43802;BMP280;29429;51.074;13.764;2022-10-16T15:23:18;100238.50;;;21.01
43802;BMP280;29429;51.074;13.764;2022-10-16T15:25:50;100243.03;;;20.91
43802;BMP280;29429;51.074;13.764;2022-10-16T15:28:19;100238.34;;;20.81
43802;BMP280;29429;51.074;13.764;2022-10-16T15:30:51;100243.50;;;20.78
43802;BMP280;29429;51.074;13.764;2022-10-16T15:33:27;100239.06;;;20.67
43802;BMP280;29429;51.074;13.764;2022-10-16T15:36:04;100246.31;;;20.61
43802;BMP280;29429;51.074;13.764;2022-10-16T15:38:31;100247.09;;;20.56
43802;BMP280;29429;51.074;13.764;2022-10-16T15:40:58;100255.22;;;20.56
43802;BMP280;29429;51.074;13.764;2022-10-16T15:43:25;100258.66;;;20.47
43802;BMP280;29429;51.074;13.764;2022-10-16T15:46:13;100258.06;;;20.40
43802;BMP280;29429;51.074;13.764;2022-10-16T15:48:41;100253.88;;;20.27
43802;BMP280;29429;51.074;13.764;2022-10-16T15:51:09;100271.75;;;20.28
43802;BMP280;29429;51.074;13.764;2022-10-16T15:53:36;100262.09;;;20.16
43802;BMP280;29429;51.074;13.764;2022-10-16T15:56:04;100273.75;;;20.16
43802;BMP280;29429;51.074;13.764;2022-10-16T15:58:33;100280.75;;;20.12
43802;BMP280;29429;51.074;13.764;2022-10-16T16:01:01;100271.78;;;20.07
43802;BMP280;29429;51.074;13.764;2022-10-16T16:03:29;100270.91;;;20.01
43802;BMP280;29429;51.074;13.764;2022-10-16T16:06:02;100269.47;;;19.93
43802;BMP280;29429;51.074;13.764;2022-10-16T16:08:29;100283.22;;;19.92
43802;BMP280;29429;51.074;13.764;2022-10-16T16:11:01;100279.06;;;19.84
43802;BMP280;29429;51.074;13.764;2022-10-16T16:13:29;100276.88;;;19.81
43802;BMP280;29429;51.074;13.764;2022-10-16T16:15:56;100287.97;;;19.80
43802;BMP280;29429;51.074;13.764;2022-10-16T16:18:23;100294.44;;;19.79
43802;BMP280;29429;51.074;13.764;2022-10-16T16:20:51;100295.94;;;19.70